Time;durP1;ratioP1;P1;durP2;ratioP2;P2;SDS_P1;SDS_P2;PMS_P1;PMS_P2;Temp;Humidity;BMP_temperature;BMP_pressure;BME280_temperature;BME280_humidity;BME280_pressure;Samples;Min_cycle;Max_cycle;Signal;HPM_P1;HPM_P2
2022/01/31 00:00:08;;;;;;;0.60;0.10;;;5.20;1.00;;;;;;5011197;28;20445;-72
2022/01/31 00:02:36;;;;;;;0.60;0.10;;;5.10;1.00;;;;;;5011003;28;20450;-72
2022/01/31 00:05:05;;;;;;;0.60;0.10;;;5.10;1.00;;;;;;5012119;28;21004;-71
2022/01/31 00:07:33;;;;;;;0.60;0.20;;;5.10;1.00;;;;;;5012340;28;20469;-72
2022/01/31 00:10:05;;;;;;;0.60;0.10;;;5.10;1.00;;;;;;5011967;28;21021;-71
2022/01/31 00:12:40;;;;;;;0.60;0.10;;;5.10;1.00;;;;;;5011348;28;20455;-71
2022/01/31 00:15:10;;;;;;;0.60;0.10;;;;;;;;;;5012040;28;20450;-73
2022/01/31 00:17:38;;;;;;;0.60;0.10;;;5.20;1.00;;;;;;5011904;28;20499;-71
2022/01/31 00:20:06;;;;;;;0.60;0.10;;;5.20;1.00;;;;;;5012209;28;20528;-72
2022/01/31 00:22:34;;;;;;;0.60;0.10;;;5.20;1.00;;;;;;5012594;28;20446;-72
2022/01/31 00:25:02;;;;;;;0.60;0.30;;;5.10;1.00;;;;;;5013689;28;20477;-73
2022/01/31 00:27:30;;;;;;;0.70;0.40;;;5.10;1.00;;;;;;5015250;28;20825;-73
2022/01/31 00:29:58;;;;;;;0.60;0.10;;;5.10;1.00;;;;;;4997934;28;20494;-72
2022/01/31 00:32:29;;;;;;;0.60;0.10;;;5.00;1.00;;;;;;4997304;28;20484;-72
2022/01/31 00:34:57;;;;;;;0.80;0.50;;;5.00;1.00;;;;;;4997041;28;20867;-73
2022/01/31 00:37:26;;;;;;;0.60;0.10;;;4.90;1.00;;;;;;4996813;28;20474;-73
2022/01/31 00:39:54;;;;;;;1.10;0.87;;;4.80;1.00;;;;;;4997780;28;20426;-72
2022/01/31 00:42:23;;;;;;;0.63;0.10;;;4.80;1.00;;;;;;4997307;28;20449;-73
2022/01/31 00:44:52;;;;;;;0.60;0.10;;;4.80;1.00;;;;;;4999160;28;20449;-73
2022/01/31 00:47:23;;;;;;;0.60;0.10;;;4.70;1.00;;;;;;4996980;28;20462;-73
2022/01/31 00:50:03;;;;;;;0.80;0.50;;;4.70;1.00;;;;;;4997180;28;20481;-73
2022/01/31 00:52:31;;;;;;;0.70;0.10;;;4.70;1.00;;;;;;4997002;28;20446;-72
2022/01/31 00:54:59;;;;;;;1.20;1.07;;;4.70;1.00;;;;;;4995586;28;20446;-72
2022/01/31 00:57:26;;;;;;;0.70;0.10;;;4.70;1.00;;;;;;4996174;28;20473;-72
2022/01/31 00:59:54;;;;;;;5.13;3.90;;;4.70;1.00;;;;;;4995750;28;20437;-71
2022/01/31 01:02:23;;;;;;;0.70;0.20;;;4.70;1.00;;;;;;4995442;28;20449;-72
2022/01/31 01:04:53;;;;;;;0.80;0.10;;;4.60;1.00;;;;;;4995601;28;20454;-72
2022/01/31 01:07:22;;;;;;;0.80;0.10;;;4.70;1.00;;;;;;4995577;28;20453;-71
2022/01/31 01:09:50;;;;;;;1.10;0.30;;;4.70;1.00;;;;;;4995663;28;20480;-72
2022/01/31 01:12:19;;;;;;;0.90;0.10;;;4.60;1.00;;;;;;4995568;28;20454;-73
2022/01/31 01:14:49;;;;;;;0.90;0.20;;;4.60;1.00;;;;;;4995398;28;20469;-72
2022/01/31 01:17:17;;;;;;;1.10;0.10;;;4.50;1.00;;;;;;4995410;28;20458;-72
2022/01/31 01:19:45;;;;;;;1.07;0.10;;;4.60;1.00;;;;;;4995610;28;20445;-72
2022/01/31 01:22:14;;;;;;;1.10;0.10;;;4.60;1.00;;;;;;4995448;28;20795;-71
2022/01/31 01:24:42;;;;;;;1.40;0.10;;;4.60;1.00;;;;;;4995161;28;20448;-72
2022/01/31 01:27:10;;;;;;;1.40;0.23;;;4.50;1.00;;;;;;4994835;28;20979;-72
2022/01/31 01:29:38;;;;;;;1.47;0.10;;;4.50;1.00;;;;;;5007039;28;20452;-72
2022/01/31 01:32:09;;;;;;;1.40;0.10;;;4.50;1.00;;;;;;5014807;28;20468;-72
2022/01/31 01:34:37;;;;;;;1.60;0.10;;;4.50;1.00;;;;;;5014683;28;20550;-71
2022/01/31 01:37:05;;;;;;;2.20;0.10;;;4.50;1.00;;;;;;5014053;28;20481;-71
2022/01/31 01:39:35;;;;;;;2.30;0.30;;;4.50;1.00;;;;;;5014451;28;20536;-71
2022/01/31 01:42:03;;;;;;;8.47;3.60;;;4.60;1.00;;;;;;5014434;28;20438;-71
2022/01/31 01:44:40;;;;;;;3.07;0.20;;;4.50;1.00;;;;;;5014023;28;20441;-71
2022/01/31 01:47:10;;;;;;;5.20;0.20;;;4.50;1.00;;;;;;5015002;28;20464;-70
2022/01/31 01:49:38;;;;;;;6.60;1.57;;;4.50;1.00;;;;;;5014500;28;20521;-71
2022/01/31 01:52:07;;;;;;;5.70;0.20;;;4.50;1.00;;;;;;5014298;28;20445;-71
2022/01/31 01:54:36;;;;;;;13.10;0.77;;;4.40;1.00;;;;;;5014448;28;20812;-70
2022/01/31 01:57:05;;;;;;;9.10;0.20;;;4.40;1.00;;;;;;4996539;28;21046;-70
2022/01/31 01:59:34;;;;;;;70.43;64.40;;;4.40;1.00;;;;;;4999760;28;20460;-72
2022/01/31 02:02:03;;;;;;;20.50;0.50;;;4.40;1.00;;;;;;4993247;28;20514;-71
2022/01/31 02:04:31;;;;;;;23.07;0.30;;;4.40;1.00;;;;;;4994420;28;20452;-70
2022/01/31 02:06:59;;;;;;;38.37;0.40;;;4.40;1.00;;;;;;4994576;28;20498;-70
2022/01/31 02:09:29;;;;;;;59.97;30.20;;;4.40;1.00;;;;;;4994473;28;20442;-71
2022/01/31 02:11:59;;;;;;;48.33;0.70;;;4.40;1.00;;;;;;4994140;28;20498;-70
2022/01/31 02:14:29;;;;;;;49.47;0.70;;;4.30;1.00;;;;;;4994167;28;20844;-71
2022/01/31 02:16:57;;;;;;;65.03;28.53;;;4.30;1.00;;;;;;4994206;28;20989;-70
2022/01/31 02:19:25;;;;;;;52.10;2.50;;;4.30;1.00;;;;;;4992651;28;20451;-70
2022/01/31 02:21:55;;;;;;;52.17;0.90;;;4.30;1.00;;;;;;4994640;28;20756;-71
2022/01/31 02:24:23;;;;;;;63.43;33.30;;;4.30;1.00;;;;;;4994141;28;20485;-71
2022/01/31 02:26:51;;;;;;;58.83;32.07;;;4.30;1.00;;;;;;4994397;28;20832;-71
2022/01/31 02:29:19;;;;;;;47.60;0.70;;;;;;;;;;4993865;28;20445;-71
2022/01/31 02:31:49;;;;;;;45.90;0.80;;;4.20;1.00;;;;;;4993783;28;20486;-71
2022/01/31 02:34:17;;;;;;;46.87;0.90;;;4.20;1.00;;;;;;4993955;28;20458;-71
2022/01/31 02:36:45;;;;;;;61.63;6.57;;;4.20;1.00;;;;;;4993636;28;20815;-70
2022/01/31 02:39:15;;;;;;;44.37;3.03;;;4.20;1.00;;;;;;5011082;28;20518;-71
2022/01/31 02:41:44;;;;;;;40.27;0.50;;;4.20;1.00;;;;;;5013098;28;20456;-71
2022/01/31 02:44:15;;;;;;;41.00;0.50;;;4.10;1.00;;;;;;5012999;28;20448;-71
2022/01/31 02:46:50;;;;;;;39.70;0.60;;;4.10;1.00;;;;;;5013455;28;20933;-73
2022/01/31 02:49:21;;;;;;;39.03;0.40;;;4.00;1.00;;;;;;5012654;28;20445;-71
2022/01/31 02:51:53;;;;;;;39.10;0.70;;;4.00;1.00;;;;;;4993882;28;20466;-71
2022/01/31 02:54:22;;;;;;;40.30;0.80;;;4.10;1.00;;;;;;4993295;28;20625;-71
2022/01/31 02:56:50;;;;;;;38.83;0.40;;;4.10;1.00;;;;;;4993281;28;20475;-71
2022/01/31 02:59:18;;;;;;;39.07;0.40;;;4.10;1.00;;;;;;4993356;28;20941;-71
2022/01/31 03:01:46;;;;;;;39.07;0.50;;;4.20;1.00;;;;;;4993673;28;20822;-71
2022/01/31 03:04:14;;;;;;;38.67;0.50;;;4.30;1.00;;;;;;4993386;28;20482;-71
2022/01/31 03:06:49;;;;;;;38.43;0.40;;;4.40;1.00;;;;;;4993290;28;20448;-70
2022/01/31 03:09:18;;;;;;;38.47;0.40;;;4.40;1.00;;;;;;4993321;28;20574;-71
2022/01/31 03:11:48;;;;;;;38.37;0.40;;;4.30;1.00;;;;;;4993170;28;20483;-71
2022/01/31 03:14:16;;;;;;;38.43;0.50;;;4.40;1.00;;;;;;4993147;28;20452;-71
2022/01/31 03:16:45;;;;;;;38.03;0.40;;;4.50;1.00;;;;;;4993198;28;20458;-70
2022/01/31 03:19:13;;;;;;;38.07;0.40;;;4.60;1.00;;;;;;4993482;28;21043;-70
2022/01/31 03:21:42;;;;;;;37.93;0.40;;;4.60;1.00;;;;;;4992933;28;20455;-71
2022/01/31 03:24:11;;;;;;;38.03;0.40;;;4.70;1.00;;;;;;4993080;28;20442;-72
2022/01/31 03:26:40;;;;;;;38.13;0.40;;;4.80;1.00;;;;;;4992720;28;20949;-71
2022/01/31 03:29:09;;;;;;;38.03;0.40;;;4.80;1.00;;;;;;4993474;28;20454;-71
2022/01/31 03:31:37;;;;;;;37.90;0.40;;;4.90;1.00;;;;;;4995961;28;20481;-71
2022/01/31 03:34:05;;;;;;;38.20;0.40;;;4.90;1.00;;;;;;4993207;28;20442;-72
2022/01/31 03:36:33;;;;;;;38.13;0.40;;;5.00;1.00;;;;;;4992866;28;20953;-71
2022/01/31 03:39:01;;;;;;;38.17;0.40;;;5.00;1.00;;;;;;4993221;28;20816;-71
2022/01/31 03:41:29;;;;;;;39.37;0.40;;;5.00;1.00;;;;;;4992914;28;21036;-74
2022/01/31 03:43:57;;;;;;;45.40;3.60;;;5.00;1.00;;;;;;4993016;28;20449;-71
2022/01/31 03:46:26;;;;;;;38.70;0.40;;;5.10;1.00;;;;;;5012541;28;20454;-72
2022/01/31 03:48:54;;;;;;;38.50;0.43;;;5.10;1.00;;;;;;5012084;28;20505;-71
2022/01/31 03:51:22;;;;;;;40.03;2.00;;;5.00;1.00;;;;;;5012291;28;20492;-72
2022/01/31 03:53:50;;;;;;;39.43;0.40;;;5.00;1.00;;;;;;5012315;28;20810;-72
2022/01/31 03:56:18;;;;;;;38.83;0.40;;;5.00;1.00;;;;;;5012024;28;20821;-71
2022/01/31 03:58:46;;;;;;;38.73;0.40;;;5.00;1.00;;;;;;5005236;28;20481;-72
2022/01/31 04:01:14;;;;;;;38.73;1.07;;;5.00;1.00;;;;;;4992313;28;20443;-71
2022/01/31 04:03:43;;;;;;;38.63;0.40;;;5.00;1.00;;;;;;4992809;28;20456;-71
2022/01/31 04:06:11;;;;;;;39.37;0.50;;;5.00;1.00;;;;;;4992947;28;20515;-71
2022/01/31 04:08:39;;;;;;;38.77;0.40;;;5.00;1.00;;;;;;4992566;28;20489;-71
2022/01/31 04:11:07;;;;;;;38.97;0.60;;;5.00;1.00;;;;;;4992467;28;20490;-70
2022/01/31 04:13:35;;;;;;;39.37;0.50;;;5.00;1.00;;;;;;4993448;28;20976;-71
2022/01/31 04:16:03;;;;;;;40.27;1.50;;;4.90;1.00;;;;;;4992409;28;20923;-71
2022/01/31 04:18:31;;;;;;;39.33;0.50;;;4.90;1.00;;;;;;4992369;28;20466;-70
2022/01/31 04:21:01;;;;;;;39.47;0.50;;;4.90;1.00;;;;;;4992970;28;20931;-70
2022/01/31 04:23:29;;;;;;;39.30;0.60;;;4.90;1.00;;;;;;4992657;28;20452;-71
2022/01/31 04:26:06;;;;;;;38.70;0.40;;;4.90;1.00;;;;;;4992385;28;20823;-71
2022/01/31 04:28:41;;;;;;;38.67;0.40;;;4.90;1.00;;;;;;5004757;28;20550;-71
2022/01/31 04:31:26;;;;;;;38.70;0.50;;;4.90;1.00;;;;;;5012028;28;20438;-71
2022/01/31 04:33:54;;;;;;;38.97;0.40;;;4.80;1.00;;;;;;5011954;28;20445;-70
2022/01/31 04:36:23;;;;;;;39.67;3.80;;;4.80;1.00;;;;;;5012698;28;20469;-70
2022/01/31 04:38:51;;;;;;;38.90;1.70;;;4.80;1.00;;;;;;5011496;28;20467;-71
2022/01/31 04:41:20;;;;;;;38.73;0.97;;;4.80;1.00;;;;;;5011905;28;20816;-70
2022/01/31 04:43:50;;;;;;;38.27;0.40;;;4.80;1.00;;;;;;4992118;28;20508;-71
2022/01/31 04:46:19;;;;;;;38.17;0.50;;;4.80;1.00;;;;;;4992097;28;20481;-71
2022/01/31 04:48:47;;;;;;;41.83;0.80;;;4.90;1.00;;;;;;4991827;28;20880;-71
2022/01/31 04:51:15;;;;;;;36.67;0.50;;;4.90;1.00;;;;;;4991933;28;20439;-71
2022/01/31 04:53:44;;;;;;;36.70;0.40;;;4.80;1.00;;;;;;4992321;28;20885;-72
2022/01/31 04:56:17;;;;;;;35.77;0.47;;;4.80;1.00;;;;;;4992521;28;20539;-71
2022/01/31 04:58:45;;;;;;;37.10;1.57;;;4.80;1.00;;;;;;4991919;28;20465;-70
2022/01/31 05:01:13;;;;;;;35.20;0.50;;;4.80;1.00;;;;;;4991902;28;20446;-70
2022/01/31 05:03:44;;;;;;;40.80;16.23;;;;;;;;;;4992106;28;20988;-70
2022/01/31 05:06:16;;;;;;;31.60;0.60;;;4.60;1.00;;;;;;4991775;28;20442;-70
2022/01/31 05:08:45;;;;;;;41.90;2.03;;;4.40;1.00;;;;;;4992009;28;20481;-70
2022/01/31 05:11:13;;;;;;;28.80;0.93;;;4.40;1.00;;;;;;5001765;28;20466;-70
2022/01/31 05:13:46;;;;;;;29.87;2.13;;;4.30;1.00;;;;;;5014728;28;20484;-71
2022/01/31 05:16:14;;;;;;;30.23;1.10;;;4.30;1.00;;;;;;5014782;28;20536;-70
2022/01/31 05:18:44;;;;;;;31.53;1.13;;;4.20;1.00;;;;;;5014712;28;20480;-70
2022/01/31 05:21:12;;;;;;;30.10;0.60;;;4.10;1.00;;;;;;5014976;28;20448;-70
2022/01/31 05:23:40;;;;;;;34.13;4.10;;;4.10;1.00;;;;;;5014807;28;20546;-71
2022/01/31 05:26:09;;;;;;;1.23;1.13;;;4.10;1.00;;;;;;5015105;28;20459;-70
2022/01/31 05:28:37;;;;;;;11.13;4.20;;;4.00;1.00;;;;;;5001680;28;20866;-71
2022/01/31 05:31:06;;;;;;;4.33;2.73;;;3.90;1.00;;;;;;5012980;28;20468;-70
2022/01/31 05:33:34;;;;;;;1.73;1.33;;;3.90;1.00;;;;;;5027284;28;20488;-70
2022/01/31 05:36:02;;;;;;;3.23;2.53;;;3.90;1.00;;;;;;5030868;28;20534;-70
2022/01/31 05:38:34;;;;;;;2.40;1.90;;;3.90;1.00;;;;;;5037032;22;20508;-73
2022/01/31 05:41:05;;;;;;;6.10;3.17;;;3.90;1.00;;;;;;5021206;28;20441;-73
2022/01/31 05:43:35;;;;;;;3.03;1.97;;;3.90;1.00;;;;;;5015567;28;20434;-73
2022/01/31 05:46:03;;;;;;;2.87;2.30;;;3.80;1.00;;;;;;5014252;28;20447;-73
2022/01/31 05:48:31;;;;;;;2.00;1.07;;;3.80;1.00;;;;;;5028538;28;20831;-73
2022/01/31 05:50:59;;;;;;;0.50;0.20;;;3.70;1.00;;;;;;5033742;28;20445;-73
2022/01/31 05:53:27;;;;;;;2.20;0.60;;;3.80;1.00;;;;;;5008502;28;20484;-74
2022/01/31 05:55:55;;;;;;;2.00;1.33;;;3.90;1.00;;;;;;4994850;28;20454;-74
2022/01/31 05:58:23;;;;;;;2.33;1.10;;;3.90;1.00;;;;;;4993833;28;20485;-72
2022/01/31 06:00:52;;;;;;;0.70;0.37;;;3.90;1.00;;;;;;4993970;28;20454;-73
2022/01/31 06:03:20;;;;;;;2.40;2.20;;;3.80;1.00;;;;;;4995069;28;20452;-73
2022/01/31 06:05:48;;;;;;;4.77;1.90;;;3.90;1.00;;;;;;5003577;28;20824;-73
2022/01/31 06:08:16;;;;;;;3.23;1.80;;;3.80;1.00;;;;;;5015340;28;20465;-74
2022/01/31 06:10:46;;;;;;;1.50;1.40;;;3.80;1.00;;;;;;5017352;28;20444;-73
2022/01/31 06:13:16;;;;;;;6.00;2.03;;;4.00;1.00;;;;;;5021359;28;20592;-73
2022/01/31 06:15:44;;;;;;;6.47;1.63;;;3.80;1.00;;;;;;5013448;28;20955;-75
2022/01/31 06:18:13;;;;;;;1.20;1.03;;;3.80;1.00;;;;;;5019776;28;20465;-73
2022/01/31 06:20:41;;;;;;;1.10;0.80;;;3.80;1.00;;;;;;5032652;28;20450;-73
2022/01/31 06:23:09;;;;;;;0.90;0.50;;;3.80;1.00;;;;;;5032330;28;20445;-73
2022/01/31 06:25:37;;;;;;;3.50;0.50;;;3.90;1.00;;;;;;5034505;28;20439;-73
2022/01/31 06:28:06;;;;;;;2.00;0.87;;;3.90;1.00;;;;;;5042703;28;20469;-73
2022/01/31 06:30:36;;;;;;;0.60;0.30;;;3.90;1.00;;;;;;5036378;28;20451;-73
2022/01/31 06:33:04;;;;;;;1.60;0.63;;;3.90;1.00;;;;;;5037209;28;20522;-73
2022/01/31 06:35:33;;;;;;;0.80;0.80;;;4.00;1.00;;;;;;5022956;28;20878;-74
2022/01/31 06:38:01;;;;;;;1.43;0.87;;;4.00;1.00;;;;;;5016074;28;20487;-73
2022/01/31 06:40:29;;;;;;;1.03;0.50;;;4.10;1.00;;;;;;5019624;28;20476;-73
2022/01/31 06:42:57;;;;;;;1.00;1.00;;;4.10;1.00;;;;;;5028328;28;20435;-74
2022/01/31 06:45:24;;;;;;;2.73;0.63;;;4.10;1.00;;;;;;5030083;28;20451;-74
2022/01/31 06:47:52;;;;;;;1.33;0.97;;;4.20;1.00;;;;;;5006760;28;20519;-73
2022/01/31 06:50:20;;;;;;;1.80;0.70;;;4.20;1.00;;;;;;5019106;28;20456;-73
2022/01/31 06:52:53;;;;;;;1.90;1.30;;;4.20;1.00;;;;;;5013440;28;20488;-74
2022/01/31 06:55:22;;;;;;;3.13;0.70;;;4.20;1.00;;;;;;5013129;28;20935;-74
2022/01/31 06:57:51;;;;;;;3.70;3.37;;;4.20;1.00;;;;;;5012424;28;20473;-73
2022/01/31 07:00:20;;;;;;;0.60;0.60;;;4.20;1.00;;;;;;5019631;28;20461;-73
2022/01/31 07:02:50;;;;;;;0.60;0.50;;;4.30;1.00;;;;;;5019407;28;20457;-74
2022/01/31 07:05:19;;;;;;;1.00;0.77;;;4.30;1.00;;;;;;5013328;28;20473;-73
2022/01/31 07:07:46;;;;;;;1.70;1.10;;;4.40;1.00;;;;;;5013288;28;20490;-73
2022/01/31 07:10:16;;;;;;;0.50;0.10;;;4.40;1.00;;;;;;5019249;28;20553;-73
2022/01/31 07:12:52;;;;;;;0.70;0.50;;;4.50;1.00;;;;;;5019089;28;20675;-73
2022/01/31 07:15:21;;;;;;;0.70;0.50;;;4.40;1.00;;;;;;5015456;28;20992;-73
2022/01/31 07:17:49;;;;;;;0.60;0.37;;;4.50;1.00;;;;;;5025249;28;20535;-72
2022/01/31 07:20:23;;;;;;;0.80;0.77;;;4.50;1.00;;;;;;5034815;28;20446;-75
2022/01/31 07:22:57;;;;;;;1.20;1.10;;;4.50;1.00;;;;;;5033173;28;20445;-73
2022/01/31 07:25:38;;;;;;;0.90;0.50;;;4.50;1.00;;;;;;5018006;28;20499;-74
2022/01/31 07:28:09;;;;;;;2.00;1.23;;;4.60;1.00;;;;;;5017495;28;20475;-72
2022/01/31 07:30:39;;;;;;;1.53;1.37;;;4.60;1.00;;;;;;5021613;28;20455;-72
2022/01/31 07:33:10;;;;;;;1.23;0.80;;;4.60;1.00;;;;;;5026285;28;20482;-73
2022/01/31 07:35:39;;;;;;;0.50;0.20;;;4.60;1.00;;;;;;5027447;28;20452;-73
2022/01/31 07:38:07;;;;;;;0.90;0.73;;;4.60;1.00;;;;;;5015258;28;20472;-74
2022/01/31 07:40:36;;;;;;;1.43;0.83;;;4.60;1.00;;;;;;5013425;28;20434;-73
2022/01/31 07:43:04;;;;;;;2.40;1.13;;;4.60;1.00;;;;;;5017192;28;20467;-74
2022/01/31 07:45:32;;;;;;;0.93;0.83;;;4.70;1.00;;;;;;5023788;28;20452;-73
2022/01/31 07:48:00;;;;;;;0.50;0.20;;;4.70;1.00;;;;;;5012311;28;20517;-73
2022/01/31 07:50:30;;;;;;;0.70;0.40;;;4.70;1.00;;;;;;5012118;28;20436;-75
2022/01/31 07:52:58;;;;;;;1.13;0.60;;;4.80;1.00;;;;;;5032168;28;20442;-73
2022/01/31 07:55:26;;;;;;;0.60;0.20;;;4.80;1.00;;;;;;5034660;28;20446;-74
2022/01/31 07:57:55;;;;;;;0.50;0.20;;;4.80;1.00;;;;;;5032321;28;20466;-72
2022/01/31 08:00:42;;;;;;;1.00;0.87;;;4.90;1.00;;;;;;5032084;28;20874;-73
2022/01/31 08:03:10;;;;;;;0.50;0.20;;;4.90;1.00;;;;;;5032136;28;20449;-74
2022/01/31 08:05:38;;;;;;;0.50;0.10;;;5.00;1.00;;;;;;5031708;28;20527;-73
2022/01/31 08:08:06;;;;;;;0.50;0.10;;;5.00;1.00;;;;;;5024891;28;20482;-75
2022/01/31 08:10:36;;;;;;;0.50;0.10;;;5.00;1.00;;;;;;5011761;28;20464;-75
2022/01/31 08:13:08;;;;;;;1.30;0.93;;;5.10;1.00;;;;;;5011766;28;20429;-74
2022/01/31 08:15:45;;;;;;;8.33;1.03;;;5.10;1.00;;;;;;5012818;28;20817;-74
2022/01/31 08:18:14;;;;;;;0.60;0.30;;;5.00;1.00;;;;;;5012650;28;20492;-72
2022/01/31 08:20:45;;;;;;;0.70;0.60;;;5.00;1.00;;;;;;5023465;28;20445;-74
2022/01/31 08:23:13;;;;;;;0.50;0.10;;;5.00;1.00;;;;;;5018298;28;20476;-73
2022/01/31 08:25:40;;;;;;;0.60;0.30;;;5.10;1.00;;;;;;5013923;28;20545;-74
2022/01/31 08:28:11;;;;;;;0.60;0.40;;;5.10;1.00;;;;;;5013567;28;20467;-76
2022/01/31 08:30:48;;;;;;;0.70;0.37;;;5.20;1.00;;;;;;5015862;28;20445;-72
2022/01/31 08:33:32;;;;;;;0.80;0.70;;;5.20;1.00;;;;;;5014580;28;20549;-73
2022/01/31 08:36:00;;;;;;;0.50;0.10;;;5.20;1.00;;;;;;5023254;28;20511;-73
2022/01/31 08:38:29;;;;;;;0.50;0.10;;;5.30;1.00;;;;;;5026897;28;20994;-73
2022/01/31 08:40:59;;;;;;;1.13;0.87;;;5.30;1.00;;;;;;5038892;28;20482;-73
2022/01/31 08:43:29;;;;;;;0.50;0.20;;;5.40;1.00;;;;;;5034623;28;20816;-73
2022/01/31 08:45:57;;;;;;;0.60;0.20;;;5.40;1.00;;;;;;5031993;28;20547;-74
2022/01/31 08:48:25;;;;;;;0.70;0.30;;;5.40;1.00;;;;;;5037327;28;20551;-72
2022/01/31 08:50:56;;;;;;;0.70;0.40;;;5.40;1.00;;;;;;5038024;28;20484;-72
2022/01/31 08:53:24;;;;;;;0.70;0.50;;;5.40;1.00;;;;;;5018823;28;20464;-73
2022/01/31 08:55:57;;;;;;;0.50;0.20;;;5.40;1.00;;;;;;5010396;28;20456;-75
2022/01/31 08:58:25;;;;;;;0.80;0.70;;;5.40;1.00;;;;;;5018763;28;20617;-73
2022/01/31 09:01:00;;;;;;;1.80;1.17;;;5.40;1.00;;;;;;5023207;28;20548;-75
2022/01/31 09:06:20;;;;;;;0.50;0.10;;;5.50;1.00;;;;;;5015476;28;21034;-73
2022/01/31 09:08:48;;;;;;;1.77;1.47;;;;;;;;;;5017354;28;20469;-72
2022/01/31 09:11:19;;;;;;;1.33;0.73;;;5.60;1.00;;;;;;5016541;28;20500;-72
2022/01/31 09:13:48;;;;;;;0.80;0.17;;;5.60;1.00;;;;;;5019490;28;20476;-72
2022/01/31 09:16:17;;;;;;;0.50;0.10;;;5.70;1.00;;;;;;5019272;28;20452;-75
2022/01/31 09:18:46;;;;;;;0.60;0.33;;;5.70;1.00;;;;;;5017713;28;20848;-74
2022/01/31 09:21:14;;;;;;;0.90;0.57;;;5.80;1.00;;;;;;5016469;28;20463;-75
2022/01/31 09:23:42;;;;;;;0.60;0.20;;;5.80;1.00;;;;;;5029210;28;20549;-73
2022/01/31 09:26:10;;;;;;;0.80;0.70;;;5.80;1.00;;;;;;5044931;28;20457;-73
2022/01/31 09:28:39;;;;;;;0.60;0.27;;;5.80;1.00;;;;;;5045533;28;20554;-75
2022/01/31 09:31:08;;;;;;;2.23;0.80;;;5.70;1.00;;;;;;5024731;28;20537;-74
2022/01/31 09:33:42;;;;;;;2.70;0.60;;;;;;;;;;5024337;28;20500;-73
2022/01/31 09:36:10;;;;;;;1.07;0.60;;;5.70;1.00;;;;;;5021337;28;20481;-73
2022/01/31 09:38:40;;;;;;;0.70;0.60;;;5.70;1.00;;;;;;5012895;28;20596;-72
2022/01/31 09:41:10;;;;;;;0.90;0.63;;;5.70;1.00;;;;;;5016285;28;20552;-73
2022/01/31 09:44:04;;;;;;;0.80;0.47;;;5.80;1.00;;;;;;5027866;28;20437;-71
2022/01/31 09:46:47;;;;;;;0.50;0.20;;;5.80;1.00;;;;;;5014699;28;20450;-73
2022/01/31 09:49:17;;;;;;;0.50;0.10;;;5.80;1.00;;;;;;5025054;28;20470;-74
2022/01/31 09:51:45;;;;;;;4.97;1.23;;;5.90;1.00;;;;;;5018864;28;20548;-72
2022/01/31 09:54:13;;;;;;;0.63;0.30;;;6.00;1.00;;;;;;5011626;28;20452;-73
2022/01/31 09:56:43;;;;;;;0.50;0.10;;;5.90;1.00;;;;;;5026524;28;20474;-75
2022/01/31 09:59:14;;;;;;;2.50;0.50;;;6.00;1.00;;;;;;5013613;28;20466;-73
2022/01/31 10:01:43;;;;;;;0.60;0.20;;;5.90;1.00;;;;;;5014128;28;20877;-73
2022/01/31 10:04:17;;;;;;;0.60;0.20;;;5.90;1.00;;;;;;5015241;28;21031;-75
2022/01/31 10:06:48;;;;;;;0.60;0.20;;;6.00;1.00;;;;;;5014886;28;20889;-75
2022/01/31 10:09:18;;;;;;;0.50;0.10;;;6.00;1.00;;;;;;5015153;28;20452;-75
2022/01/31 10:11:50;;;;;;;0.60;0.23;;;6.00;1.00;;;;;;5020799;28;20812;-75
2022/01/31 10:17:10;;;;;;;0.60;0.20;;;6.00;1.00;;;;;;5028521;28;20955;-72
2022/01/31 10:19:51;;;;;;;1.80;0.50;;;6.00;1.00;;;;;;5014228;28;20545;-74
2022/01/31 10:22:22;;;;;;;1.17;0.83;;;6.00;1.00;;;;;;5015016;28;20441;-75
2022/01/31 10:24:52;;;;;;;0.50;0.30;;;6.00;1.00;;;;;;5016959;28;20526;-74
2022/01/31 10:27:22;;;;;;;0.57;0.27;;;6.00;1.00;;;;;;5015269;28;20466;-75
2022/01/31 10:29:52;;;;;;;0.60;0.27;;;6.00;1.00;;;;;;5016223;28;20447;-74
2022/01/31 10:32:26;;;;;;;1.20;0.83;;;6.10;1.00;;;;;;5014064;28;20895;-75
2022/01/31 10:34:57;;;;;;;0.70;0.30;;;6.10;1.00;;;;;;5011073;28;20497;-73
2022/01/31 10:37:30;;;;;;;0.50;0.10;;;6.20;1.00;;;;;;5017092;28;20852;-75
2022/01/31 10:45:53;;;;;;;2.40;0.63;;;6.30;1.00;;;;;;5029863;28;20445;-74
2022/01/31 10:54:26;;;;;;;1.53;0.20;;;6.40;1.00;;;;;;5026536;28;20437;-74
2022/01/31 10:56:55;;;;;;;0.50;0.10;;;6.30;1.00;;;;;;5034202;28;20445;-76
2022/01/31 10:59:26;;;;;;;0.60;0.20;;;6.30;1.00;;;;;;5015841;28;20500;-77
2022/01/31 11:01:55;;;;;;;0.50;0.10;;;6.20;1.00;;;;;;5025835;28;20531;-75
2022/01/31 11:04:34;;;;;;;0.50;0.20;;;6.20;1.00;;;;;;5014362;28;20572;-76
2022/01/31 11:07:06;;;;;;;0.60;0.30;;;6.20;1.00;;;;;;5015390;28;20443;-75
2022/01/31 11:09:36;;;;;;;0.50;0.20;;;6.20;1.00;;;;;;5013486;28;20482;-76
2022/01/31 11:12:05;;;;;;;0.50;0.20;;;6.20;1.00;;;;;;5015262;28;20439;-75
2022/01/31 11:14:34;;;;;;;0.50;0.20;;;6.20;1.00;;;;;;5014422;28;20450;-77
2022/01/31 11:17:10;;;;;;;1.00;0.57;;;6.10;1.00;;;;;;5014896;28;20484;-75
2022/01/31 11:19:39;;;;;;;0.50;0.10;;;6.10;1.00;;;;;;5015253;28;20454;-75
2022/01/31 11:22:09;;;;;;;1.00;0.53;;;;;;;;;;5016542;28;20439;-77
2022/01/31 11:24:55;;;;;;;0.83;0.40;;;6.00;1.00;;;;;;5016242;28;20465;-75
2022/01/31 11:27:24;;;;;;;0.50;0.10;;;6.00;1.00;;;;;;5014978;28;20549;-76
2022/01/31 11:29:55;;;;;;;3.37;0.93;;;6.00;1.00;;;;;;5024960;28;20445;-75
2022/01/31 11:32:23;;;;;;;0.50;0.10;;;6.00;1.00;;;;;;5015726;28;20473;-77
2022/01/31 11:34:52;;;;;;;0.50;0.10;;;6.00;1.00;;;;;;5015458;28;20800;-77
2022/01/31 11:37:21;;;;;;;0.50;0.10;;;6.00;1.00;;;;;;5016082;28;20484;-76
2022/01/31 11:39:57;;;;;;;0.50;0.10;;;6.00;1.00;;;;;;5020846;28;20438;-75
2022/01/31 11:42:26;;;;;;;0.50;0.10;;;5.80;1.00;;;;;;5018071;28;20488;-76
2022/01/31 11:45:00;;;;;;;0.50;0.20;;;5.80;1.00;;;;;;5009751;28;20469;-76
2022/01/31 11:47:32;;;;;;;0.50;0.20;;;5.80;1.00;;;;;;5012679;28;20476;-75
2022/01/31 11:50:04;;;;;;;0.60;0.20;;;5.70;1.00;;;;;;5012811;28;20448;-75
2022/01/31 11:52:34;;;;;;;0.50;0.10;;;5.70;1.00;;;;;;5010883;28;20532;-76
2022/01/31 11:55:09;;;;;;;0.50;0.10;;;5.70;1.00;;;;;;5011745;28;20449;-77
2022/01/31 11:57:37;;;;;;;0.90;0.20;;;6.20;1.00;;;;;;5012515;28;20461;-75
2022/01/31 12:00:08;;;;;;;0.50;0.10;;;5.60;1.00;;;;;;5012047;28;20441;-75
2022/01/31 12:02:42;;;;;;;0.70;0.30;;;5.60;1.00;;;;;;5016745;28;20539;-77
2022/01/31 12:05:14;;;;;;;0.50;0.10;;;5.60;1.00;;;;;;5025818;28;20442;-74
2022/01/31 12:07:47;;;;;;;1.10;0.30;;;5.60;1.00;;;;;;5019286;28;20489;-77
2022/01/31 12:10:22;;;;;;;0.60;0.40;;;5.60;1.00;;;;;;5039934;28;20455;-75
2022/01/31 12:12:55;;;;;;;0.50;0.10;;;5.60;1.00;;;;;;5042910;28;20506;-76
2022/01/31 12:15:52;;;;;;;0.50;0.10;;;5.60;1.00;;;;;;5036128;28;21154;-75
2022/01/31 12:24:08;;;;;;;0.50;0.20;;;5.70;1.00;;;;;;5014579;28;20924;-75
2022/01/31 12:26:53;;;;;;;0.50;0.20;;;5.70;1.00;;;;;;5015783;28;20462;-75
2022/01/31 12:29:23;;;;;;;0.50;0.10;;;5.80;1.00;;;;;;5016321;28;20453;-77
2022/01/31 12:31:54;;;;;;;0.50;0.20;;;5.80;1.00;;;;;;5011067;28;20957;-75
2022/01/31 12:34:34;;;;;;;0.50;0.20;;;5.90;1.00;;;;;;5015380;28;20549;-75
2022/01/31 12:37:03;;;;;;;0.73;0.33;;;6.00;1.00;;;;;;5021682;28;20983;-76
2022/01/31 12:40:04;;;;;;;0.97;0.20;;;6.00;1.00;;;;;;5036382;28;20981;-76
2022/01/31 12:46:06;;;;;;;0.50;0.10;;;5.90;1.00;;;;;;5035151;28;20513;-76
2022/01/31 12:48:34;;;;;;;1.77;0.57;;;5.90;1.00;;;;;;5036163;28;20905;-76
2022/01/31 12:51:05;;;;;;;0.50;0.10;;;6.00;1.00;;;;;;5033880;28;20584;-76
2022/01/31 12:53:50;;;;;;;0.50;0.20;;;7.50;1.00;;;;;;5016861;28;20513;-79
2022/01/31 12:56:25;;;;;;;0.70;0.30;;;6.00;1.00;;;;;;5017200;28;20850;-76
2022/01/31 12:59:05;;;;;;;0.50;0.10;;;6.00;1.00;;;;;;5016923;28;20927;-76
2022/01/31 13:01:38;;;;;;;0.70;0.50;;;6.00;1.00;;;;;;5019019;28;20474;-76
2022/01/31 13:04:08;;;;;;;0.50;0.10;;;6.00;1.00;;;;;;5016340;28;20947;-74
2022/01/31 13:06:39;;;;;;;0.50;0.10;;;6.10;1.00;;;;;;5016741;28;20441;-74
2022/01/31 13:09:14;;;;;;;0.60;0.20;;;6.10;1.00;;;;;;5019240;28;20528;-76
2022/01/31 13:11:45;;;;;;;1.47;0.30;;;6.10;1.00;;;;;;5017356;28;20441;-74
2022/01/31 13:14:17;;;;;;;0.50;0.20;;;6.10;1.00;;;;;;5017488;28;20470;-76
2022/01/31 13:17:08;;;;;;;0.50;0.20;;;6.10;1.00;;;;;;5020898;28;20535;-76
2022/01/31 13:19:39;;;;;;;0.50;0.10;;;6.10;1.00;;;;;;5021971;28;20447;-75
2022/01/31 13:22:11;;;;;;;0.50;0.20;;;6.10;1.00;;;;;;5020480;28;20879;-76
2022/01/31 13:24:41;;;;;;;0.50;0.10;;;6.10;1.00;;;;;;5022453;28;20459;-76
2022/01/31 13:27:12;;;;;;;0.50;0.10;;;6.00;1.00;;;;;;5017267;28;20441;-76
2022/01/31 13:30:02;;;;;;;0.50;0.17;;;6.00;1.00;;;;;;5016299;28;20446;-76
2022/01/31 13:32:33;;;;;;;0.50;0.20;;;6.00;1.00;;;;;;5015337;28;20464;-75
2022/01/31 13:35:07;;;;;;;0.50;0.10;;;6.10;1.00;;;;;;5009861;28;20457;-75
2022/01/31 13:37:38;;;;;;;0.50;0.10;;;6.00;1.00;;;;;;5024447;28;20563;-75
2022/01/31 13:40:11;;;;;;;0.80;0.20;;;6.10;1.00;;;;;;5022100;28;20468;-74
2022/01/31 13:42:42;;;;;;;0.50;0.20;;;6.10;1.00;;;;;;5032670;28;20452;-73
2022/01/31 13:45:19;;;;;;;0.50;0.20;;;6.10;1.00;;;;;;5033135;28;20528;-74
2022/01/31 13:47:53;;;;;;;0.60;0.43;;;6.10;1.00;;;;;;5022679;28;20465;-75